sensor_id;sensor_type;location;lat;lon;timestamp;temperature;humidity
61117;DHT22;47002;50.856;6.580;2022-08-19T00:01:28;16.40;80.60
61117;DHT22;47002;50.856;6.580;2022-08-19T00:03:53;16.20;81.00
61117;DHT22;47002;50.856;6.580;2022-08-19T00:06:19;16.10;81.20
61117;DHT22;47002;50.856;6.580;2022-08-19T00:08:45;16.00;81.70
61117;DHT22;47002;50.856;6.580;2022-08-19T00:11:13;15.90;82.20
61117;DHT22;47002;50.856;6.580;2022-08-19T00:13:39;15.90;82.50
61117;DHT22;47002;50.856;6.580;2022-08-19T00:16:05;15.80;82.80
61117;DHT22;47002;50.856;6.580;2022-08-19T00:18:31;15.90;83.00
61117;DHT22;47002;50.856;6.580;2022-08-19T00:20:57;15.90;83.10
61117;DHT22;47002;50.856;6.580;2022-08-19T00:23:23;15.90;83.00
61117;DHT22;47002;50.856;6.580;2022-08-19T00:25:49;15.90;83.00
61117;DHT22;47002;50.856;6.580;2022-08-19T00:28:16;16.00;83.00
61117;DHT22;47002;50.856;6.580;2022-08-19T00:30:42;16.00;83.00
61117;DHT22;47002;50.856;6.580;2022-08-19T00:33:07;16.00;83.20
61117;DHT22;47002;50.856;6.580;2022-08-19T00:35:33;16.00;83.40
61117;DHT22;47002;50.856;6.580;2022-08-19T00:37:59;16.00;83.30
61117;DHT22;47002;50.856;6.580;2022-08-19T00:40:25;16.10;83.20
61117;DHT22;47002;50.856;6.580;2022-08-19T00:42:51;16.10;83.20
61117;DHT22;47002;50.856;6.580;2022-08-19T00:45:21;16.10;83.20
61117;DHT22;47002;50.856;6.580;2022-08-19T00:47:47;16.00;83.20
61117;DHT22;47002;50.856;6.580;2022-08-19T00:50:15;16.00;83.20
61117;DHT22;47002;50.856;6.580;2022-08-19T00:52:44;16.00;83.40
61117;DHT22;47002;50.856;6.580;2022-08-19T00:55:13;16.00;83.60
61117;DHT22;47002;50.856;6.580;2022-08-19T00:57:44;16.00;83.80
61117;DHT22;47002;50.856;6.580;2022-08-19T01:00:13;15.90;84.00
61117;DHT22;47002;50.856;6.580;2022-08-19T01:02:41;16.00;84.00
61117;DHT22;47002;50.856;6.580;2022-08-19T01:05:11;16.00;84.10
61117;DHT22;47002;50.856;6.580;2022-08-19T01:07:39;15.90;83.90
61117;DHT22;47002;50.856;6.580;2022-08-19T01:10:07;15.90;84.00
61117;DHT22;47002;50.856;6.580;2022-08-19T01:12:33;15.90;84.00
61117;DHT22;47002;50.856;6.580;2022-08-19T01:14:59;15.80;84.10
61117;DHT22;47002;50.856;6.580;2022-08-19T01:17:25;15.80;84.20
61117;DHT22;47002;50.856;6.580;2022-08-19T01:19:53;15.80;84.30
61117;DHT22;47002;50.856;6.580;2022-08-19T01:22:26;15.70;84.50
61117;DHT22;47002;50.856;6.580;2022-08-19T01:24:52;15.70;84.70
61117;DHT22;47002;50.856;6.580;2022-08-19T01:27:18;15.60;84.80
61117;DHT22;47002;50.856;6.580;2022-08-19T01:29:44;15.60;85.00
61117;DHT22;47002;50.856;6.580;2022-08-19T01:32:13;15.60;85.20
61117;DHT22;47002;50.856;6.580;2022-08-19T01:34:39;15.60;85.60
61117;DHT22;47002;50.856;6.580;2022-08-19T01:37:07;15.60;85.70
61117;DHT22;47002;50.856;6.580;2022-08-19T01:39:34;15.60;85.80
61117;DHT22;47002;50.856;6.580;2022-08-19T01:42:00;15.60;86.00
61117;DHT22;47002;50.856;6.580;2022-08-19T01:44:26;15.60;86.00
61117;DHT22;47002;50.856;6.580;2022-08-19T01:46:52;15.60;86.10
61117;DHT22;47002;50.856;6.580;2022-08-19T01:49:19;15.60;86.30
61117;DHT22;47002;50.856;6.580;2022-08-19T01:51:46;15.60;86.30
61117;DHT22;47002;50.856;6.580;2022-08-19T01:54:13;15.60;86.40
61117;DHT22;47002;50.856;6.580;2022-08-19T01:56:40;15.80;86.40
61117;DHT22;47002;50.856;6.580;2022-08-19T01:59:10;15.80;86.10
61117;DHT22;47002;50.856;6.580;2022-08-19T02:01:37;15.80;86.10
61117;DHT22;47002;50.856;6.580;2022-08-19T02:04:03;15.80;86.10
61117;DHT22;47002;50.856;6.580;2022-08-19T02:06:29;15.80;86.30
61117;DHT22;47002;50.856;6.580;2022-08-19T02:08:55;15.80;86.40
61117;DHT22;47002;50.856;6.580;2022-08-19T02:11:23;15.80;86.50
61117;DHT22;47002;50.856;6.580;2022-08-19T02:13:51;15.90;86.80
61117;DHT22;47002;50.856;6.580;2022-08-19T02:16:17;16.00;86.60
61117;DHT22;47002;50.856;6.580;2022-08-19T02:18:43;16.00;86.70
61117;DHT22;47002;50.856;6.580;2022-08-19T02:21:10;16.10;86.40
61117;DHT22;47002;50.856;6.580;2022-08-19T02:23:35;16.10;86.10
61117;DHT22;47002;50.856;6.580;2022-08-19T02:26:01;16.10;86.00
61117;DHT22;47002;50.856;6.580;2022-08-19T02:28:27;16.10;86.10
61117;DHT22;47002;50.856;6.580;2022-08-19T02:30:54;16.10;86.20
61117;DHT22;47002;50.856;6.580;2022-08-19T02:33:20;16.10;86.10
61117;DHT22;47002;50.856;6.580;2022-08-19T02:35:46;16.10;86.10
61117;DHT22;47002;50.856;6.580;2022-08-19T02:38:12;16.10;86.10
61117;DHT22;47002;50.856;6.580;2022-08-19T02:40:38;16.10;86.20
61117;DHT22;47002;50.856;6.580;2022-08-19T02:43:06;16.10;86.20
61117;DHT22;47002;50.856;6.580;2022-08-19T02:45:32;16.10;86.20
61117;DHT22;47002;50.856;6.580;2022-08-19T02:47:59;16.10;86.10
61117;DHT22;47002;50.856;6.580;2022-08-19T02:50:25;16.10;86.00
61117;DHT22;47002;50.856;6.580;2022-08-19T02:52:51;16.10;86.20
61117;DHT22;47002;50.856;6.580;2022-08-19T02:55:16;16.10;86.30
61117;DHT22;47002;50.856;6.580;2022-08-19T02:57:42;16.10;86.40
61117;DHT22;47002;50.856;6.580;2022-08-19T03:00:09;16.00;86.60
61117;DHT22;47002;50.856;6.580;2022-08-19T03:02:35;16.10;86.70
61117;DHT22;47002;50.856;6.580;2022-08-19T03:05:02;16.00;86.50
61117;DHT22;47002;50.856;6.580;2022-08-19T03:07:28;16.00;86.40
61117;DHT22;47002;50.856;6.580;2022-08-19T03:09:53;15.90;86.50
61117;DHT22;47002;50.856;6.580;2022-08-19T03:12:19;15.80;86.90
61117;DHT22;47002;50.856;6.580;2022-08-19T03:14:45;15.70;87.00
61117;DHT22;47002;50.856;6.580;2022-08-19T03:17:10;15.70;87.40
61117;DHT22;47002;50.856;6.580;2022-08-19T03:19:36;15.70;87.50
61117;DHT22;47002;50.856;6.580;2022-08-19T03:22:03;15.80;87.50
61117;DHT22;47002;50.856;6.580;2022-08-19T03:24:29;15.80;87.60
61117;DHT22;47002;50.856;6.580;2022-08-19T03:26:55;15.80;87.50
61117;DHT22;47002;50.856;6.580;2022-08-19T03:29:21;15.80;87.50
61117;DHT22;47002;50.856;6.580;2022-08-19T03:31:47;15.80;87.60
61117;DHT22;47002;50.856;6.580;2022-08-19T03:34:15;15.90;87.80
61117;DHT22;47002;50.856;6.580;2022-08-19T03:36:41;16.00;88.00
61117;DHT22;47002;50.856;6.580;2022-08-19T03:39:10;16.10;87.80
61117;DHT22;47002;50.856;6.580;2022-08-19T03:41:37;16.10;87.40
61117;DHT22;47002;50.856;6.580;2022-08-19T03:44:03;16.20;87.20
61117;DHT22;47002;50.856;6.580;2022-08-19T03:46:32;16.20;86.90
61117;DHT22;47002;50.856;6.580;2022-08-19T03:49:00;16.30;86.90
61117;DHT22;47002;50.856;6.580;2022-08-19T03:51:27;16.30;86.90
61117;DHT22;47002;50.856;6.580;2022-08-19T03:53:54;16.30;86.90
61117;DHT22;47002;50.856;6.580;2022-08-19T03:56:22;16.20;86.90
61117;DHT22;47002;50.856;6.580;2022-08-19T03:58:48;16.20;87.00
61117;DHT22;47002;50.856;6.580;2022-08-19T04:01:15;16.20;87.10
61117;DHT22;47002;50.856;6.580;2022-08-19T04:03:41;16.10;87.20
61117;DHT22;47002;50.856;6.580;2022-08-19T04:06:11;16.10;87.40
61117;DHT22;47002;50.856;6.580;2022-08-19T04:08:38;16.10;87.50
61117;DHT22;47002;50.856;6.580;2022-08-19T04:11:07;16.10;87.70
61117;DHT22;47002;50.856;6.580;2022-08-19T04:13:34;16.00;88.00
61117;DHT22;47002;50.856;6.580;2022-08-19T04:16:00;15.90;88.20
61117;DHT22;47002;50.856;6.580;2022-08-19T04:18:26;15.90;88.40
61117;DHT22;47002;50.856;6.580;2022-08-19T04:20:51;15.80;88.50
61117;DHT22;47002;50.856;6.580;2022-08-19T04:23:17;15.80;88.80
61117;DHT22;47002;50.856;6.580;2022-08-19T04:25:44;15.80;88.90
61117;DHT22;47002;50.856;6.580;2022-08-19T04:28:12;15.80;88.90
61117;DHT22;47002;50.856;6.580;2022-08-19T04:30:41;15.80;89.00
61117;DHT22;47002;50.856;6.580;2022-08-19T04:33:07;15.80;89.00
61117;DHT22;47002;50.856;6.580;2022-08-19T04:35:36;15.80;89.10
61117;DHT22;47002;50.856;6.580;2022-08-19T04:38:02;15.70;89.00
61117;DHT22;47002;50.856;6.580;2022-08-19T04:40:28;15.70;89.00
61117;DHT22;47002;50.856;6.580;2022-08-19T04:42:53;15.60;89.00
61117;DHT22;47002;50.856;6.580;2022-08-19T04:45:19;15.60;89.10
61117;DHT22;47002;50.856;6.580;2022-08-19T04:47:46;15.60;89.40
61117;DHT22;47002;50.856;6.580;2022-08-19T04:50:12;15.50;89.40
61117;DHT22;47002;50.856;6.580;2022-08-19T04:52:38;15.60;89.90
61117;DHT22;47002;50.856;6.580;2022-08-19T04:55:04;15.60;89.30
61117;DHT22;47002;50.856;6.580;2022-08-19T04:57:30;15.60;89.10
61117;DHT22;47002;50.856;6.580;2022-08-19T04:59:56;15.50;89.20
61117;DHT22;47002;50.856;6.580;2022-08-19T05:02:22;15.40;89.50
61117;DHT22;47002;50.856;6.580;2022-08-19T05:04:50;15.30;89.70
61117;DHT22;47002;50.856;6.580;2022-08-19T05:07:15;15.30;89.90
61117;DHT22;47002;50.856;6.580;2022-08-19T05:09:41;15.20;90.00
61117;DHT22;47002;50.856;6.580;2022-08-19T05:12:07;15.30;90.20
61117;DHT22;47002;50.856;6.580;2022-08-19T05:14:33;15.30;90.70
61117;DHT22;47002;50.856;6.580;2022-08-19T05:17:00;15.50;90.80
61117;DHT22;47002;50.856;6.580;2022-08-19T05:19:26;15.50;90.70
61117;DHT22;47002;50.856;6.580;2022-08-19T05:21:53;15.60;90.70
61117;DHT22;47002;50.856;6.580;2022-08-19T05:24:20;15.60;90.70
61117;DHT22;47002;50.856;6.580;2022-08-19T05:26:48;15.70;90.40
61117;DHT22;47002;50.856;6.580;2022-08-19T05:29:16;15.70;90.20
61117;DHT22;47002;50.856;6.580;2022-08-19T05:31:42;15.80;90.10
61117;DHT22;47002;50.856;6.580;2022-08-19T05:34:09;15.80;89.90
61117;DHT22;47002;50.856;6.580;2022-08-19T05:36:36;15.80;89.80
61117;DHT22;47002;50.856;6.580;2022-08-19T05:39:04;15.80;89.90
61117;DHT22;47002;50.856;6.580;2022-08-19T05:41:29;15.80;89.80
61117;DHT22;47002;50.856;6.580;2022-08-19T05:43:55;15.80;89.70
61117;DHT22;47002;50.856;6.580;2022-08-19T05:46:21;15.80;89.60
61117;DHT22;47002;50.856;6.580;2022-08-19T05:48:47;15.90;89.50
61117;DHT22;47002;50.856;6.580;2022-08-19T05:51:12;15.90;89.40
61117;DHT22;47002;50.856;6.580;2022-08-19T05:53:38;15.90;89.40
61117;DHT22;47002;50.856;6.580;2022-08-19T05:56:06;16.00;89.30
61117;DHT22;47002;50.856;6.580;2022-08-19T05:58:32;16.10;89.10
61117;DHT22;47002;50.856;6.580;2022-08-19T06:00:58;16.20;88.90
61117;DHT22;47002;50.856;6.580;2022-08-19T06:03:23;16.20;88.70
61117;DHT22;47002;50.856;6.580;2022-08-19T06:05:49;16.30;88.50
61117;DHT22;47002;50.856;6.580;2022-08-19T06:08:15;16.40;88.30
61117;DHT22;47002;50.856;6.580;2022-08-19T06:10:40;16.40;88.10
61117;DHT22;47002;50.856;6.580;2022-08-19T06:13:07;16.50;88.10
61117;DHT22;47002;50.856;6.580;2022-08-19T06:15:33;16.50;88.00
61117;DHT22;47002;50.856;6.580;2022-08-19T06:17:59;16.50;88.00
61117;DHT22;47002;50.856;6.580;2022-08-19T06:20:24;16.60;88.10
61117;DHT22;47002;50.856;6.580;2022-08-19T06:22:50;16.50;87.80
61117;DHT22;47002;50.856;6.580;2022-08-19T06:25:16;16.60;87.70
61117;DHT22;47002;50.856;6.580;2022-08-19T06:27:42;16.60;87.70
61117;DHT22;47002;50.856;6.580;2022-08-19T06:30:11;16.60;87.70
61117;DHT22;47002;50.856;6.580;2022-08-19T06:32:37;16.60;87.60
61117;DHT22;47002;50.856;6.580;2022-08-19T06:35:03;16.60;87.60
61117;DHT22;47002;50.856;6.580;2022-08-19T06:37:29;16.70;87.60
61117;DHT22;47002;50.856;6.580;2022-08-19T06:39:55;16.70;87.30
61117;DHT22;47002;50.856;6.580;2022-08-19T06:42:20;16.70;87.40
61117;DHT22;47002;50.856;6.580;2022-08-19T06:44:47;16.70;87.50
61117;DHT22;47002;50.856;6.580;2022-08-19T06:47:16;16.70;87.70
61117;DHT22;47002;50.856;6.580;2022-08-19T06:49:42;16.70;87.80
61117;DHT22;47002;50.856;6.580;2022-08-19T06:52:09;16.70;87.70
61117;DHT22;47002;50.856;6.580;2022-08-19T06:54:35;16.70;87.70
61117;DHT22;47002;50.856;6.580;2022-08-19T06:57:01;16.80;87.70
61117;DHT22;47002;50.856;6.580;2022-08-19T06:59:27;16.80;87.60
61117;DHT22;47002;50.856;6.580;2022-08-19T07:01:55;16.80;87.50
61117;DHT22;47002;50.856;6.580;2022-08-19T07:04:25;16.90;87.40
61117;DHT22;47002;50.856;6.580;2022-08-19T07:06:57;16.90;87.40
61117;DHT22;47002;50.856;6.580;2022-08-19T07:09:23;16.90;87.50
61117;DHT22;47002;50.856;6.580;2022-08-19T07:11:51;16.90;87.60
61117;DHT22;47002;50.856;6.580;2022-08-19T07:14:20;16.90;87.60
61117;DHT22;47002;50.856;6.580;2022-08-19T07:16:47;16.90;87.70
61117;DHT22;47002;50.856;6.580;2022-08-19T07:19:13;16.90;87.60
61117;DHT22;47002;50.856;6.580;2022-08-19T07:21:40;16.90;87.60
61117;DHT22;47002;50.856;6.580;2022-08-19T07:24:07;16.90;87.40
61117;DHT22;47002;50.856;6.580;2022-08-19T07:26:37;17.00;87.40
61117;DHT22;47002;50.856;6.580;2022-08-19T07:29:04;17.00;87.20
61117;DHT22;47002;50.856;6.580;2022-08-19T07:31:29;17.10;87.10
61117;DHT22;47002;50.856;6.580;2022-08-19T07:33:56;17.10;86.90
61117;DHT22;47002;50.856;6.580;2022-08-19T07:36:23;17.20;86.60
61117;DHT22;47002;50.856;6.580;2022-08-19T07:38:51;17.30;86.50
61117;DHT22;47002;50.856;6.580;2022-08-19T07:41:20;17.40;86.30
61117;DHT22;47002;50.856;6.580;2022-08-19T07:43:46;17.60;85.60
61117;DHT22;47002;50.856;6.580;2022-08-19T07:46:13;17.70;85.30
61117;DHT22;47002;50.856;6.580;2022-08-19T07:48:40;17.80;84.70
61117;DHT22;47002;50.856;6.580;2022-08-19T07:51:07;17.80;83.90
61117;DHT22;47002;50.856;6.580;2022-08-19T07:53:33;17.90;83.40
61117;DHT22;47002;50.856;6.580;2022-08-19T07:56:01;17.80;82.50
61117;DHT22;47002;50.856;6.580;2022-08-19T07:58:27;17.80;82.40
61117;DHT22;47002;50.856;6.580;2022-08-19T08:00:53;17.90;82.40
61117;DHT22;47002;50.856;6.580;2022-08-19T08:03:21;18.00;81.80
61117;DHT22;47002;50.856;6.580;2022-08-19T08:05:48;18.10;79.80
61117;DHT22;47002;50.856;6.580;2022-08-19T08:08:13;18.20;78.90
61117;DHT22;47002;50.856;6.580;2022-08-19T08:10:39;18.30;78.30
61117;DHT22;47002;50.856;6.580;2022-08-19T08:13:07;18.50;77.50
61117;DHT22;47002;50.856;6.580;2022-08-19T08:15:32;18.70;76.70
61117;DHT22;47002;50.856;6.580;2022-08-19T08:17:58;18.90;74.80
61117;DHT22;47002;50.856;6.580;2022-08-19T08:20:24;19.10;73.90
61117;DHT22;47002;50.856;6.580;2022-08-19T08:22:50;19.30;72.70
61117;DHT22;47002;50.856;6.580;2022-08-19T08:25:18;19.50;72.30
61117;DHT22;47002;50.856;6.580;2022-08-19T08:27:45;19.60;71.50
61117;DHT22;47002;50.856;6.580;2022-08-19T08:30:18;19.80;69.60
61117;DHT22;47002;50.856;6.580;2022-08-19T08:32:44;19.90;67.60
61117;DHT22;47002;50.856;6.580;2022-08-19T08:35:17;20.10;67.60
61117;DHT22;47002;50.856;6.580;2022-08-19T08:37:44;20.10;65.70
61117;DHT22;47002;50.856;6.580;2022-08-19T08:40:19;20.00;66.20
61117;DHT22;47002;50.856;6.580;2022-08-19T08:42:51;19.90;65.50
61117;DHT22;47002;50.856;6.580;2022-08-19T08:45:22;19.90;65.10
61117;DHT22;47002;50.856;6.580;2022-08-19T08:47:51;20.00;65.20
61117;DHT22;47002;50.856;6.580;2022-08-19T08:50:20;20.00;65.70
61117;DHT22;47002;50.856;6.580;2022-08-19T08:52:50;20.10;65.50
61117;DHT22;47002;50.856;6.580;2022-08-19T08:55:19;20.20;65.30
61117;DHT22;47002;50.856;6.580;2022-08-19T08:57:55;20.40;65.50
61117;DHT22;47002;50.856;6.580;2022-08-19T09:00:25;20.60;65.10
61117;DHT22;47002;50.856;6.580;2022-08-19T09:02:51;20.60;65.00
61117;DHT22;47002;50.856;6.580;2022-08-19T09:05:17;20.70;65.10
61117;DHT22;47002;50.856;6.580;2022-08-19T09:07:50;20.70;64.50
61117;DHT22;47002;50.856;6.580;2022-08-19T09:10:23;20.80;64.60
61117;DHT22;47002;50.856;6.580;2022-08-19T09:13:00;20.80;64.90
61117;DHT22;47002;50.856;6.580;2022-08-19T09:15:32;20.80;65.20
61117;DHT22;47002;50.856;6.580;2022-08-19T09:18:00;20.80;65.60
61117;DHT22;47002;50.856;6.580;2022-08-19T09:20:26;20.70;65.70
61117;DHT22;47002;50.856;6.580;2022-08-19T09:22:52;20.70;65.80
61117;DHT22;47002;50.856;6.580;2022-08-19T09:25:19;20.60;66.70
61117;DHT22;47002;50.856;6.580;2022-08-19T09:27:45;20.40;67.80
61117;DHT22;47002;50.856;6.580;2022-08-19T09:30:15;20.60;67.70
61117;DHT22;47002;50.856;6.580;2022-08-19T09:32:43;20.60;67.60
61117;DHT22;47002;50.856;6.580;2022-08-19T09:35:09;20.70;67.00
61117;DHT22;47002;50.856;6.580;2022-08-19T09:37:35;20.80;66.60
61117;DHT22;47002;50.856;6.580;2022-08-19T09:40:01;21.00;66.40
61117;DHT22;47002;50.856;6.580;2022-08-19T09:42:26;21.10;65.60
61117;DHT22;47002;50.856;6.580;2022-08-19T09:44:52;21.20;64.80
61117;DHT22;47002;50.856;6.580;2022-08-19T09:47:18;21.30;63.70
61117;DHT22;47002;50.856;6.580;2022-08-19T09:49:45;21.40;62.80
61117;DHT22;47002;50.856;6.580;2022-08-19T09:52:11;21.30;63.20
61117;DHT22;47002;50.856;6.580;2022-08-19T09:54:37;21.40;64.10
61117;DHT22;47002;50.856;6.580;2022-08-19T09:57:03;21.50;62.30
61117;DHT22;47002;50.856;6.580;2022-08-19T09:59:29;21.60;61.50
61117;DHT22;47002;50.856;6.580;2022-08-19T10:01:55;21.80;60.90
61117;DHT22;47002;50.856;6.580;2022-08-19T10:04:21;21.90;61.20
61117;DHT22;47002;50.856;6.580;2022-08-19T10:06:49;21.90;60.40
61117;DHT22;47002;50.856;6.580;2022-08-19T10:09:17;22.00;58.80
61117;DHT22;47002;50.856;6.580;2022-08-19T10:11:44;22.10;61.10
61117;DHT22;47002;50.856;6.580;2022-08-19T10:14:11;22.30;60.70
61117;DHT22;47002;50.856;6.580;2022-08-19T10:16:37;22.20;60.30
61117;DHT22;47002;50.856;6.580;2022-08-19T10:19:03;22.10;61.00
61117;DHT22;47002;50.856;6.580;2022-08-19T10:21:31;22.20;61.10
61117;DHT22;47002;50.856;6.580;2022-08-19T10:24:01;22.20;61.30
61117;DHT22;47002;50.856;6.580;2022-08-19T10:26:30;22.10;61.40
61117;DHT22;47002;50.856;6.580;2022-08-19T10:28:57;22.00;61.90
61117;DHT22;47002;50.856;6.580;2022-08-19T10:31:25;22.00;62.40
61117;DHT22;47002;50.856;6.580;2022-08-19T10:33:51;22.00;62.00
61117;DHT22;47002;50.856;6.580;2022-08-19T10:36:19;22.00;61.60
61117;DHT22;47002;50.856;6.580;2022-08-19T10:38:48;21.90;62.10
61117;DHT22;47002;50.856;6.580;2022-08-19T10:41:18;22.00;62.20
61117;DHT22;47002;50.856;6.580;2022-08-19T10:43:45;21.90;62.30
61117;DHT22;47002;50.856;6.580;2022-08-19T10:46:13;22.00;62.50
61117;DHT22;47002;50.856;6.580;2022-08-19T10:48:39;22.10;61.10
61117;DHT22;47002;50.856;6.580;2022-08-19T10:51:05;22.20;60.60
61117;DHT22;47002;50.856;6.580;2022-08-19T10:53:31;22.20;60.50
61117;DHT22;47002;50.856;6.580;2022-08-19T10:55:56;22.20;60.00
61117;DHT22;47002;50.856;6.580;2022-08-19T10:58:23;22.20;60.40
61117;DHT22;47002;50.856;6.580;2022-08-19T11:00:52;22.10;60.70
61117;DHT22;47002;50.856;6.580;2022-08-19T11:03:18;22.10;60.40
61117;DHT22;47002;50.856;6.580;2022-08-19T11:05:43;22.00;60.70
61117;DHT22;47002;50.856;6.580;2022-08-19T11:08:09;22.00;61.10
61117;DHT22;47002;50.856;6.580;2022-08-19T11:10:35;22.10;60.90
61117;DHT22;47002;50.856;6.580;2022-08-19T11:13:01;22.00;60.90
61117;DHT22;47002;50.856;6.580;2022-08-19T11:15:28;21.90;61.20
61117;DHT22;47002;50.856;6.580;2022-08-19T11:17:53;22.00;60.90
61117;DHT22;47002;50.856;6.580;2022-08-19T11:20:19;21.90;61.20
61117;DHT22;47002;50.856;6.580;2022-08-19T11:22:45;21.90;61.20
61117;DHT22;47002;50.856;6.580;2022-08-19T11:25:11;22.00;60.60
61117;DHT22;47002;50.856;6.580;2022-08-19T11:27:39;22.20;59.30
61117;DHT22;47002;50.856;6.580;2022-08-19T11:30:06;22.40;58.80
61117;DHT22;47002;50.856;6.580;2022-08-19T11:32:33;22.60;58.00
61117;DHT22;47002;50.856;6.580;2022-08-19T11:34:59;22.70;57.30
61117;DHT22;47002;50.856;6.580;2022-08-19T11:37:25;23.00;57.00
61117;DHT22;47002;50.856;6.580;2022-08-19T11:39:50;23.10;56.20
61117;DHT22;47002;50.856;6.580;2022-08-19T11:42:17;23.40;55.70
61117;DHT22;47002;50.856;6.580;2022-08-19T11:44:43;23.40;55.90
61117;DHT22;47002;50.856;6.580;2022-08-19T11:47:08;23.60;54.60
61117;DHT22;47002;50.856;6.580;2022-08-19T11:49:35;23.90;53.60
61117;DHT22;47002;50.856;6.580;2022-08-19T11:52:02;24.00;53.00
61117;DHT22;47002;50.856;6.580;2022-08-19T11:54:27;23.80;53.50
61117;DHT22;47002;50.856;6.580;2022-08-19T11:56:53;23.80;52.70
61117;DHT22;47002;50.856;6.580;2022-08-19T11:59:19;23.60;52.60
61117;DHT22;47002;50.856;6.580;2022-08-19T12:01:44;23.70;52.60
61117;DHT22;47002;50.856;6.580;2022-08-19T12:04:10;23.80;51.00
61117;DHT22;47002;50.856;6.580;2022-08-19T12:06:39;23.80;49.80
61117;DHT22;47002;50.856;6.580;2022-08-19T12:09:08;23.80;49.50
61117;DHT22;47002;50.856;6.580;2022-08-19T12:11:34;24.10;50.10
61117;DHT22;47002;50.856;6.580;2022-08-19T12:14:00;24.40;47.10
61117;DHT22;47002;50.856;6.580;2022-08-19T12:16:27;24.40;47.60
61117;DHT22;47002;50.856;6.580;2022-08-19T12:18:54;24.40;48.90
61117;DHT22;47002;50.856;6.580;2022-08-19T12:21:24;24.50;48.30
61117;DHT22;47002;50.856;6.580;2022-08-19T12:23:51;24.60;48.20
61117;DHT22;47002;50.856;6.580;2022-08-19T12:26:17;24.90;47.80
61117;DHT22;47002;50.856;6.580;2022-08-19T12:28:43;24.80;47.40
61117;DHT22;47002;50.856;6.580;2022-08-19T12:31:09;24.80;47.20
61117;DHT22;47002;50.856;6.580;2022-08-19T12:33:35;24.80;47.30
61117;DHT22;47002;50.856;6.580;2022-08-19T12:36:02;24.80;47.50
61117;DHT22;47002;50.856;6.580;2022-08-19T12:38:28;24.90;47.80
61117;DHT22;47002;50.856;6.580;2022-08-19T12:40:55;24.80;48.00
61117;DHT22;47002;50.856;6.580;2022-08-19T12:43:21;24.60;48.30
61117;DHT22;47002;50.856;6.580;2022-08-19T12:45:47;24.60;48.30
61117;DHT22;47002;50.856;6.580;2022-08-19T12:48:13;24.60;47.80
61117;DHT22;47002;50.856;6.580;2022-08-19T12:50:39;24.60;47.10
61117;DHT22;47002;50.856;6.580;2022-08-19T12:53:05;24.70;47.20
61117;DHT22;47002;50.856;6.580;2022-08-19T12:55:31;24.80;47.00
61117;DHT22;47002;50.856;6.580;2022-08-19T12:57:58;24.90;47.50
61117;DHT22;47002;50.856;6.580;2022-08-19T13:00:24;24.70;47.20
61117;DHT22;47002;50.856;6.580;2022-08-19T13:02:51;24.60;47.80
61117;DHT22;47002;50.856;6.580;2022-08-19T13:05:19;24.80;48.50
61117;DHT22;47002;50.856;6.580;2022-08-19T13:07:45;25.10;47.40
61117;DHT22;47002;50.856;6.580;2022-08-19T13:10:14;25.50;45.30
61117;DHT22;47002;50.856;6.580;2022-08-19T13:12:40;25.50;43.30
61117;DHT22;47002;50.856;6.580;2022-08-19T13:15:08;25.70;44.00
61117;DHT22;47002;50.856;6.580;2022-08-19T13:17:34;26.10;43.30
61117;DHT22;47002;50.856;6.580;2022-08-19T13:20:00;26.40;41.80
61117;DHT22;47002;50.856;6.580;2022-08-19T13:22:26;27.00;41.90
61117;DHT22;47002;50.856;6.580;2022-08-19T13:24:52;27.50;41.60
61117;DHT22;47002;50.856;6.580;2022-08-19T13:27:17;27.70;40.70
61117;DHT22;47002;50.856;6.580;2022-08-19T13:29:43;27.80;41.20
61117;DHT22;47002;50.856;6.580;2022-08-19T13:32:10;28.00;38.30
61117;DHT22;47002;50.856;6.580;2022-08-19T13:34:36;27.80;39.50
61117;DHT22;47002;50.856;6.580;2022-08-19T13:37:03;28.00;39.20
61117;DHT22;47002;50.856;6.580;2022-08-19T13:39:29;28.00;37.60
61117;DHT22;47002;50.856;6.580;2022-08-19T13:41:55;28.10;38.30
61117;DHT22;47002;50.856;6.580;2022-08-19T13:44:21;28.10;38.10
61117;DHT22;47002;50.856;6.580;2022-08-19T13:46:47;28.20;38.10
61117;DHT22;47002;50.856;6.580;2022-08-19T13:49:15;28.40;38.00
61117;DHT22;47002;50.856;6.580;2022-08-19T13:51:41;28.80;37.50
61117;DHT22;47002;50.856;6.580;2022-08-19T13:54:07;28.90;37.40
61117;DHT22;47002;50.856;6.580;2022-08-19T13:56:33;29.00;36.30
61117;DHT22;47002;50.856;6.580;2022-08-19T13:58:59;29.00;35.60
61117;DHT22;47002;50.856;6.580;2022-08-19T14:01:25;29.10;35.60
61117;DHT22;47002;50.856;6.580;2022-08-19T14:03:51;29.30;33.60
61117;DHT22;47002;50.856;6.580;2022-08-19T14:06:18;29.00;32.90
61117;DHT22;47002;50.856;6.580;2022-08-19T14:08:44;28.70;33.70
61117;DHT22;47002;50.856;6.580;2022-08-19T14:11:10;28.80;34.70
61117;DHT22;47002;50.856;6.580;2022-08-19T14:13:36;29.10;34.10
61117;DHT22;47002;50.856;6.580;2022-08-19T14:16:06;29.10;34.40
61117;DHT22;47002;50.856;6.580;2022-08-19T14:18:32;29.20;34.20
61117;DHT22;47002;50.856;6.580;2022-08-19T14:20:58;29.30;34.40
61117;DHT22;47002;50.856;6.580;2022-08-19T14:23:25;29.40;34.50
61117;DHT22;47002;50.856;6.580;2022-08-19T14:25:50;29.20;34.30
61117;DHT22;47002;50.856;6.580;2022-08-19T14:28:16;29.20;35.00
61117;DHT22;47002;50.856;6.580;2022-08-19T14:30:42;29.20;35.60
61117;DHT22;47002;50.856;6.580;2022-08-19T14:33:07;28.40;37.10
61117;DHT22;47002;50.856;6.580;2022-08-19T14:35:33;28.50;37.20
61117;DHT22;47002;50.856;6.580;2022-08-19T14:38:00;28.90;36.60
61117;DHT22;47002;50.856;6.580;2022-08-19T14:40:29;29.40;35.40
61117;DHT22;47002;50.856;6.580;2022-08-19T14:42:57;29.90;35.00
61117;DHT22;47002;50.856;6.580;2022-08-19T14:45:23;29.90;34.90
61117;DHT22;47002;50.856;6.580;2022-08-19T14:47:49;29.70;35.20
61117;DHT22;47002;50.856;6.580;2022-08-19T14:50:14;29.80;35.10
61117;DHT22;47002;50.856;6.580;2022-08-19T14:52:40;29.90;35.50
61117;DHT22;47002;50.856;6.580;2022-08-19T14:55:06;30.20;34.80
61117;DHT22;47002;50.856;6.580;2022-08-19T14:57:33;29.80;35.20
61117;DHT22;47002;50.856;6.580;2022-08-19T14:59:59;29.50;36.20
61117;DHT22;47002;50.856;6.580;2022-08-19T15:02:25;29.00;36.70
61117;DHT22;47002;50.856;6.580;2022-08-19T15:04:51;28.10;38.30
61117;DHT22;47002;50.856;6.580;2022-08-19T15:07:17;27.40;40.10
61117;DHT22;47002;50.856;6.580;2022-08-19T15:09:42;26.80;41.50
61117;DHT22;47002;50.856;6.580;2022-08-19T15:12:08;26.40;42.40
61117;DHT22;47002;50.856;6.580;2022-08-19T15:14:37;26.10;43.20
61117;DHT22;47002;50.856;6.580;2022-08-19T15:17:03;25.80;43.90
61117;DHT22;47002;50.856;6.580;2022-08-19T15:19:30;25.50;44.90
61117;DHT22;47002;50.856;6.580;2022-08-19T15:21:56;25.30;45.60
61117;DHT22;47002;50.856;6.580;2022-08-19T15:24:22;25.20;46.10
61117;DHT22;47002;50.856;6.580;2022-08-19T15:26:47;25.10;46.50